Time;durP1;ratioP1;P1;durP2;ratioP2;P2;SDS_P1;SDS_P2;PMS_P1;PMS_P2;Temp;Humidity;BMP_temperature;BMP_pressure;BME280_temperature;BME280_humidity;BME280_pressure;Samples;Min_cycle;Max_cycle;Signal;HPM_P1;HPM_P2
2023/09/30 00:02:00;;;;;;;1999.90;999.90;;;;;;;;;;4974952;28;20116;-69
2023/09/30 00:04:27;;;;;;;1999.90;999.90;;;;;;;;;;4974889;28;20027;-65
2023/09/30 00:06:53;;;;;;;1999.90;999.90;;;;;;;;;;4974213;28;20038;-67
2023/09/30 00:09:19;;;;;;;1999.90;999.90;;;;;;;;;;4973916;28;20037;-66
2023/09/30 00:11:45;;;;;;;1999.90;999.90;;;;;;;;;;4974036;28;20502;-66
2023/09/30 00:14:11;;;;;;;1999.90;999.90;;;;;;;;;;4973927;28;20669;-67
2023/09/30 00:16:37;;;;;;;1999.90;999.90;;;;;;;;;;4973855;28;20027;-69
2023/09/30 00:19:03;;;;;;;1999.90;999.90;;;;;;;;;;4974403;28;20379;-65
2023/09/30 00:21:30;;;;;;;1999.90;999.90;;;;;;;;;;4974820;28;20078;-67
2023/09/30 00:23:56;;;;;;;1999.90;999.90;;;;;;;;;;4974388;28;20354;-68
2023/09/30 00:26:22;;;;;;;1999.90;999.90;;;;;;;;;;4974396;28;20050;-65
2023/09/30 00:28:48;;;;;;;1999.90;999.90;;;;;;;;;;4974359;28;20448;-65
2023/09/30 00:31:14;;;;;;;1999.90;999.90;;;;;;;;;;4974112;28;20027;-66
2023/09/30 00:33:40;;;;;;;1999.90;999.90;;;;;;;;;;4973456;28;20039;-65
2023/09/30 00:36:10;;;;;;;1999.90;999.90;;;;;;;;;;4974045;28;20040;-66
2023/09/30 00:38:36;;;;;;;1999.90;999.90;;;;;;;;;;4974452;28;20045;-66
2023/09/30 00:41:02;;;;;;;1999.90;999.90;;;;;;;;;;4973851;28;20068;-66
2023/09/30 00:43:28;;;;;;;1999.90;999.90;;;;;;;;;;4974399;28;20034;-65
2023/09/30 00:46:05;;;;;;;1999.90;999.90;;;;;;;;;;4973964;28;20134;-66
2023/09/30 00:48:31;;;;;;;1999.90;999.90;;;;;;;;;;4973767;28;20058;-66
2023/09/30 00:50:57;;;;;;;1999.90;999.90;;;;;;;;;;4973753;28;20053;-64
2023/09/30 00:53:24;;;;;;;1999.90;999.90;;;;;;;;;;4974325;28;20046;-64
2023/09/30 00:55:51;;;;;;;1999.90;999.90;;;;;;;;;;4973541;28;20129;-65
2023/09/30 00:58:17;;;;;;;1999.90;999.90;;;;;;;;;;4973107;28;20038;-65
2023/09/30 01:00:43;;;;;;;1999.90;999.90;;;;;;;;;;4973562;28;20031;-66
2023/09/30 01:03:10;;;;;;;1999.90;999.90;;;;;;;;;;4973465;28;20318;-65
2023/09/30 01:05:36;;;;;;;1999.90;999.90;;;;;;;;;;4973593;28;20022;-66
2023/09/30 01:08:03;;;;;;;1999.90;999.90;;;;;;;;;;4973513;28;20031;-67
2023/09/30 01:10:29;;;;;;;1999.90;999.90;;;;;;;;;;4973386;28;20135;-67
2023/09/30 01:12:55;;;;;;;1999.90;999.90;;;;;;;;;;4973433;28;20039;-65
2023/09/30 01:15:21;;;;;;;1999.90;999.90;;;;;;;;;;4973784;28;20019;-66
2023/09/30 01:17:47;;;;;;;1999.90;999.90;;;;;;;;;;4973477;28;20022;-66
2023/09/30 01:20:22;;;;;;;1999.90;999.90;;;;;;;;;;4973389;28;20097;-64
2023/09/30 01:22:48;;;;;;;1999.90;999.90;;;;;;;;;;4973347;28;20848;-65
2023/09/30 01:25:14;;;;;;;1999.90;999.90;;;;;;;;;;4973164;28;20019;-67
2023/09/30 01:27:40;;;;;;;1999.90;999.90;;;;;;;;;;4973520;28;20035;-67
2023/09/30 01:30:10;;;;;;;1999.90;999.90;;;;;;;;;;4973201;28;20062;-63
2023/09/30 01:32:37;;;;;;;1999.90;999.90;;;;;;;;;;4973008;28;20035;-65
2023/09/30 01:35:03;;;;;;;1999.90;999.90;;;;;;;;;;4972729;28;20023;-67
2023/09/30 01:37:29;;;;;;;1999.90;999.90;;;;;;;;;;4972912;28;20078;-63
2023/09/30 01:39:55;;;;;;;1999.90;999.90;;;;;;;;;;4955739;28;20447;-67
2023/09/30 01:42:21;;;;;;;1999.90;999.90;;;;;;;;;;4973285;28;20030;-67
2023/09/30 01:44:47;;;;;;;1999.90;999.90;;;;;;;;;;4973108;28;20474;-65
2023/09/30 01:47:13;;;;;;;1999.90;999.90;;;;;;;;;;4972817;28;20038;-66
2023/09/30 01:49:39;;;;;;;1999.90;999.90;;;;;;;;;;4973249;28;20558;-66
2023/09/30 01:52:05;;;;;;;1999.90;999.90;;;;;;;;;;4972687;28;20109;-65
2023/09/30 01:54:32;;;;;;;1999.90;999.90;;;;;;;;;;4972735;28;20443;-65
2023/09/30 01:56:58;;;;;;;1999.90;999.90;;;;;;;;;;4972776;28;20058;-66
2023/09/30 01:59:24;;;;;;;1999.90;999.90;;;;;;;;;;4972888;28;20023;-65
2023/09/30 02:01:51;;;;;;;1999.90;999.90;;;;;;;;;;4972871;28;20037;-67
2023/09/30 02:04:17;;;;;;;1999.90;999.90;;;;;;;;;;4972542;28;20023;-65
2023/09/30 02:06:43;;;;;;;1999.90;999.90;;;;;;;;;;4972974;28;20121;-67
2023/09/30 02:09:09;;;;;;;1999.90;999.90;;;;;;;;;;4972002;28;20333;-65
2023/09/30 02:11:37;;;;;;;1999.90;999.90;;;;;;;;;;4972238;28;20367;-67
2023/09/30 02:14:03;;;;;;;1999.90;999.90;;;;;;;;;;4972430;28;20027;-65
2023/09/30 02:16:29;;;;;;;1999.90;999.90;;;;;;;;;;4972404;28;20050;-66
2023/09/30 02:18:55;;;;;;;1999.90;999.90;;;;;;;;;;4972372;28;20030;-66
2023/09/30 02:21:22;;;;;;;1999.90;999.90;;;;;;;;;;4972455;28;20117;-67
2023/09/30 02:23:48;;;;;;;1999.90;999.90;;;;;;;;;;4972442;28;20023;-67
2023/09/30 02:26:15;;;;;;;1999.90;999.90;;;;;;;;;;4972229;28;20042;-65
2023/09/30 02:28:41;;;;;;;1999.90;999.90;;;;;;;;;;4972308;28;20439;-64
2023/09/30 02:31:07;;;;;;;1999.90;999.90;;;;;;;;;;4972189;28;20023;-66
2023/09/30 02:33:37;;;;;;;1999.90;999.90;;;;;;;;;;4972101;28;20047;-66
2023/09/30 02:36:05;;;;;;;1999.90;999.90;;;;;;;;;;4971989;28;20042;-68
2023/09/30 02:38:32;;;;;;;1999.90;999.90;;;;;;;;;;4972337;28;20038;-67
2023/09/30 02:40:58;;;;;;;1999.90;999.90;;;;;;;;;;4972254;28;20110;-68
2023/09/30 02:43:24;;;;;;;1999.90;999.90;;;;;;;;;;4971422;28;20134;-67
2023/09/30 02:45:50;;;;;;;1999.90;999.90;;;;;;;;;;4971856;28;20058;-66
2023/09/30 02:48:16;;;;;;;1999.90;999.90;;;;;;;;;;4972534;28;20029;-66
2023/09/30 02:50:46;;;;;;;1999.90;999.90;;;;;;;;;;4972234;28;20030;-66
2023/09/30 02:53:15;;;;;;;1999.90;999.90;;;;;;;;;;4972108;28;20109;-67
2023/09/30 02:55:45;;;;;;;1999.90;999.90;;;;;;;;;;4971754;28;20053;-67
2023/09/30 02:58:12;;;;;;;1999.90;999.90;;;;;;;;;;4971818;28;20553;-66
2023/09/30 03:00:38;;;;;;;1999.90;999.90;;;;;;;;;;4971630;28;20394;-66
2023/09/30 03:03:05;;;;;;;1999.90;999.90;;;;;;;;;;4971947;28;20034;-67
2023/09/30 03:05:33;;;;;;;1999.90;999.90;;;;;;;;;;4972094;28;20058;-66
2023/09/30 03:08:00;;;;;;;1999.90;999.90;;;;;;;;;;4971943;28;20503;-66
2023/09/30 03:10:26;;;;;;;1999.90;999.90;;;;;;;;;;4972126;28;20157;-67
2023/09/30 03:13:01;;;;;;;1999.90;999.90;;;;;;;;;;4972087;28;20031;-66
2023/09/30 03:15:28;;;;;;;1999.90;999.90;;;;;;;;;;4972033;28;20022;-67
2023/09/30 03:17:55;;;;;;;1999.90;999.90;;;;;;;;;;4971803;28;20081;-66
2023/09/30 03:20:21;;;;;;;1999.90;999.90;;;;;;;;;;4971695;28;20061;-67
2023/09/30 03:22:48;;;;;;;1999.90;999.90;;;;;;;;;;4974991;28;20479;-66
2023/09/30 03:25:17;;;;;;;1999.90;999.90;;;;;;;;;;4975305;28;20090;-67
2023/09/30 03:27:44;;;;;;;1999.90;999.90;;;;;;;;;;4975075;28;20086;-65
2023/09/30 03:30:11;;;;;;;1999.90;999.90;;;;;;;;;;4975156;28;20062;-65
2023/09/30 03:32:38;;;;;;;1999.90;999.90;;;;;;;;;;4975214;28;20035;-66
2023/09/30 03:35:10;;;;;;;1999.90;999.90;;;;;;;;;;4975269;28;20023;-67
2023/09/30 03:37:36;;;;;;;1999.90;999.90;;;;;;;;;;4975132;28;20034;-67
2023/09/30 03:40:11;;;;;;;1999.90;999.90;;;;;;;;;;4974927;28;20031;-67
2023/09/30 03:42:39;;;;;;;1999.90;999.90;;;;;;;;;;4974903;28;20034;-66
2023/09/30 03:45:07;;;;;;;1999.90;999.90;;;;;;;;;;4974826;28;20027;-67
2023/09/30 03:47:34;;;;;;;1999.90;999.90;;;;;;;;;;4975084;28;20448;-67
2023/09/30 03:50:02;;;;;;;1999.90;999.90;;;;;;;;;;4974944;28;20034;-67
2023/09/30 03:52:29;;;;;;;1999.90;999.90;;;;;;;;;;4974949;28;20118;-66
2023/09/30 03:54:55;;;;;;;1999.90;999.90;;;;;;;;;;4974703;28;20038;-66
2023/09/30 03:57:21;;;;;;;1999.90;999.90;;;;;;;;;;4975026;28;20051;-66
2023/09/30 03:59:47;;;;;;;1999.90;999.90;;;;;;;;;;4974985;28;20438;-66
2023/09/30 04:02:14;;;;;;;1999.90;999.90;;;;;;;;;;4974891;28;20032;-67
2023/09/30 04:04:40;;;;;;;1999.90;999.90;;;;;;;;;;4974668;28;20058;-67
2023/09/30 04:07:07;;;;;;;1999.90;999.90;;;;;;;;;;4974718;28;20027;-66
2023/09/30 04:09:33;;;;;;;1999.90;999.90;;;;;;;;;;4974756;28;20027;-67
2023/09/30 04:12:01;;;;;;;1999.90;999.90;;;;;;;;;;4974965;28;20071;-66
2023/09/30 04:14:27;;;;;;;1999.90;999.90;;;;;;;;;;4974758;28;20046;-65
2023/09/30 04:16:54;;;;;;;1999.90;999.90;;;;;;;;;;4974563;28;20410;-66
2023/09/30 04:19:21;;;;;;;1999.90;999.90;;;;;;;;;;4974949;28;20034;-66
2023/09/30 04:21:47;;;;;;;1999.90;999.90;;;;;;;;;;4975110;28;20098;-65
2023/09/30 04:24:13;;;;;;;1999.90;999.90;;;;;;;;;;4974713;28;20557;-65
2023/09/30 04:26:40;;;;;;;1999.90;999.90;;;;;;;;;;4974571;28;20038;-65
2023/09/30 04:29:10;;;;;;;1999.90;999.90;;;;;;;;;;4974741;28;20483;-66
2023/09/30 04:31:37;;;;;;;1999.90;999.90;;;;;;;;;;4974701;28;20034;-66
2023/09/30 04:34:04;;;;;;;1999.90;999.90;;;;;;;;;;4973747;28;20033;-66
2023/09/30 04:36:30;;;;;;;1999.90;999.90;;;;;;;;;;4974575;28;20027;-65
2023/09/30 04:38:56;;;;;;;1999.90;999.90;;;;;;;;;;4974594;28;20027;-66
2023/09/30 04:41:25;;;;;;;1999.90;999.90;;;;;;;;;;4974342;28;20027;-64
2023/09/30 04:43:52;;;;;;;1999.90;999.90;;;;;;;;;;4973896;28;20045;-65
2023/09/30 04:46:23;;;;;;;1999.90;999.90;;;;;;;;;;4973836;28;20027;-66
2023/09/30 04:48:51;;;;;;;1999.90;999.90;;;;;;;;;;4974314;28;20122;-67
2023/09/30 04:51:18;;;;;;;1999.90;999.90;;;;;;;;;;4974063;28;20027;-67
2023/09/30 04:53:47;;;;;;;1999.90;999.90;;;;;;;;;;4973671;28;20382;-65
2023/09/30 04:56:14;;;;;;;1999.90;999.90;;;;;;;;;;4973506;28;20454;-67
2023/09/30 04:58:40;;;;;;;1999.90;999.90;;;;;;;;;;4973828;28;20126;-66
2023/09/30 05:01:09;;;;;;;1999.90;999.90;;;;;;;;;;4973639;28;20026;-64
2023/09/30 05:03:35;;;;;;;1999.90;999.90;;;;;;;;;;4973635;28;20464;-65
2023/09/30 05:06:02;;;;;;;1999.90;999.90;;;;;;;;;;4973531;28;20034;-66
2023/09/30 05:08:28;;;;;;;1999.90;999.90;;;;;;;;;;4973849;28;20138;-67
2023/09/30 05:10:55;;;;;;;1999.90;999.90;;;;;;;;;;4973697;28;20023;-66
2023/09/30 05:13:23;;;;;;;1999.90;999.90;;;;;;;;;;4973595;28;20070;-66
2023/09/30 05:15:49;;;;;;;1999.90;999.90;;;;;;;;;;4973456;28;20036;-64
2023/09/30 05:18:16;;;;;;;1999.90;999.90;;;;;;;;;;4973513;28;20063;-68
2023/09/30 05:20:43;;;;;;;1999.90;999.90;;;;;;;;;;4973919;28;20037;-72
2023/09/30 05:23:12;;;;;;;1999.90;999.90;;;;;;;;;;4973580;28;20432;-68
2023/09/30 05:25:39;;;;;;;1999.90;999.90;;;;;;;;;;4973557;28;20568;-66
2023/09/30 05:28:06;;;;;;;1999.90;999.90;;;;;;;;;;4973136;28;20039;-66
2023/09/30 05:30:35;;;;;;;1999.90;999.90;;;;;;;;;;4973943;28;20030;-64
2023/09/30 05:33:01;;;;;;;1999.90;999.90;;;;;;;;;;4958227;28;20584;-64
2023/09/30 05:35:28;;;;;;;1999.90;999.90;;;;;;;;;;4945828;29;20090;-66
2023/09/30 05:37:54;;;;;;;1999.90;999.90;;;;;;;;;;4940969;29;20503;-65
2023/09/30 05:40:30;;;;;;;1999.90;999.90;;;;;;;;;;4945469;29;20107;-66
2023/09/30 05:43:00;;;;;;;1999.90;999.90;;;;;;;;;;4937651;29;20323;-64
2023/09/30 05:45:27;;;;;;;1999.90;999.90;;;;;;;;;;4947573;28;20023;-64
2023/09/30 05:47:54;;;;;;;1999.90;999.90;;;;;;;;;;4953972;29;20023;-65
2023/09/30 05:50:27;;;;;;;1999.90;999.90;;;;;;;;;;4953730;29;20023;-66
2023/09/30 05:52:54;;;;;;;1999.90;999.90;;;;;;;;;;4954170;29;20529;-63
2023/09/30 05:55:21;;;;;;;1999.90;999.90;;;;;;;;;;4953369;29;20071;-65
2023/09/30 05:57:49;;;;;;;1999.90;999.90;;;;;;;;;;4953715;29;20047;-63
2023/09/30 06:00:23;;;;;;;1999.90;999.90;;;;;;;;;;4958904;28;20070;-65
2023/09/30 06:02:51;;;;;;;1999.90;999.90;;;;;;;;;;4939747;29;20035;-64
2023/09/30 06:05:22;;;;;;;1999.90;999.90;;;;;;;;;;4953489;29;20024;-64
2023/09/30 06:07:48;;;;;;;1999.90;999.90;;;;;;;;;;4954396;29;20046;-67
2023/09/30 06:10:20;;;;;;;1999.90;999.90;;;;;;;;;;4936103;29;20098;-68
2023/09/30 06:12:47;;;;;;;1999.90;999.90;;;;;;;;;;4953490;29;20046;-63
2023/09/30 06:15:14;;;;;;;1999.90;999.90;;;;;;;;;;4953241;28;20509;-64
2023/09/30 06:17:41;;;;;;;1999.90;999.90;;;;;;;;;;4952798;29;20146;-63
2023/09/30 06:20:09;;;;;;;1999.90;999.90;;;;;;;;;;4948271;28;20031;-64
2023/09/30 06:22:35;;;;;;;1999.90;999.90;;;;;;;;;;4942829;29;20383;-64
2023/09/30 06:25:03;;;;;;;1999.90;999.90;;;;;;;;;;4942364;29;20074;-64
2023/09/30 06:27:30;;;;;;;1999.90;999.90;;;;;;;;;;4943819;29;20086;-66
2023/09/30 06:29:57;;;;;;;1999.90;999.90;;;;;;;;;;4951093;29;20027;-65
2023/09/30 06:32:23;;;;;;;1999.90;999.90;;;;;;;;;;4953084;28;20039;-65
2023/09/30 06:34:49;;;;;;;1999.90;999.90;;;;;;;;;;4952804;29;20038;-65
2023/09/30 06:37:15;;;;;;;1999.90;999.90;;;;;;;;;;4953190;29;20027;-64
2023/09/30 06:39:41;;;;;;;1999.90;999.90;;;;;;;;;;4953489;29;20035;-64
2023/09/30 06:42:07;;;;;;;1999.90;999.90;;;;;;;;;;4955869;29;20031;-64
2023/09/30 06:44:33;;;;;;;1999.90;999.90;;;;;;;;;;4952617;29;20030;-64
2023/09/30 06:47:00;;;;;;;1999.90;999.90;;;;;;;;;;4952419;29;20038;-65
2023/09/30 06:49:26;;;;;;;1999.90;999.90;;;;;;;;;;4952493;29;20086;-67
2023/09/30 06:51:52;;;;;;;1999.90;999.90;;;;;;;;;;4952420;29;20070;-64
2023/09/30 06:54:18;;;;;;;1999.90;999.90;;;;;;;;;;4952337;29;20078;-67
2023/09/30 06:56:44;;;;;;;1999.90;999.90;;;;;;;;;;4938907;28;20055;-67
2023/09/30 06:59:10;;;;;;;1999.90;999.90;;;;;;;;;;4947956;29;20036;-66
2023/09/30 07:01:36;;;;;;;1999.90;999.90;;;;;;;;;;4946321;28;20479;-67
2023/09/30 07:04:03;;;;;;;1999.90;999.90;;;;;;;;;;4940786;29;20042;-67
2023/09/30 07:06:29;;;;;;;1999.90;999.90;;;;;;;;;;4938791;28;20034;-67
2023/09/30 07:08:55;;;;;;;1999.90;999.90;;;;;;;;;;4970718;28;20038;-65
2023/09/30 07:11:29;;;;;;;1999.90;999.90;;;;;;;;;;4970961;28;20089;-68
2023/09/30 07:13:55;;;;;;;1999.90;999.90;;;;;;;;;;4970080;28;20049;-65
2023/09/30 07:16:21;;;;;;;1999.90;999.90;;;;;;;;;;4970518;28;20039;-67
2023/09/30 07:18:47;;;;;;;1999.90;999.90;;;;;;;;;;4970677;28;20387;-67
2023/09/30 07:21:13;;;;;;;1999.90;999.90;;;;;;;;;;4970437;28;20387;-67
2023/09/30 07:23:41;;;;;;;1999.90;999.90;;;;;;;;;;4970404;28;20390;-65
2023/09/30 07:26:07;;;;;;;1999.90;999.90;;;;;;;;;;4970411;28;20113;-67
2023/09/30 07:28:33;;;;;;;1999.90;999.90;;;;;;;;;;4951799;28;20512;-66
2023/09/30 07:30:59;;;;;;;1999.90;999.90;;;;;;;;;;4969500;28;20049;-67
2023/09/30 07:33:25;;;;;;;1999.90;999.90;;;;;;;;;;4969710;28;20142;-66
2023/09/30 07:35:51;;;;;;;1999.90;999.90;;;;;;;;;;4969647;28;20023;-64
2023/09/30 07:38:18;;;;;;;1999.90;999.90;;;;;;;;;;4969932;28;20031;-65
2023/09/30 07:40:44;;;;;;;1999.90;999.90;;;;;;;;;;4970282;28;20026;-63
2023/09/30 07:43:12;;;;;;;1999.90;999.90;;;;;;;;;;4970187;28;20041;-64
2023/09/30 07:45:39;;;;;;;1999.90;999.90;;;;;;;;;;4970307;28;20485;-64
2023/09/30 07:48:05;;;;;;;1999.90;999.90;;;;;;;;;;4970502;28;20071;-67
2023/09/30 07:50:31;;;;;;;1999.90;999.90;;;;;;;;;;4969641;28;20023;-64
2023/09/30 07:52:58;;;;;;;1999.90;999.90;;;;;;;;;;4963906;28;20035;-63
2023/09/30 07:55:24;;;;;;;1999.90;999.90;;;;;;;;;;4911220;28;1159798;-66
2023/09/30 07:57:50;;;;;;;1999.90;999.90;;;;;;;;;;4970169;28;20130;-66
2023/09/30 08:00:17;;;;;;;1999.90;999.90;;;;;;;;;;4970904;28;20055;-66
2023/09/30 08:02:43;;;;;;;1999.90;999.90;;;;;;;;;;4970114;28;20074;-67
2023/09/30 08:05:10;;;;;;;1999.90;999.90;;;;;;;;;;4969772;28;20021;-67
2023/09/30 08:07:37;;;;;;;1999.90;999.90;;;;;;;;;;4971137;28;20038;-66
2023/09/30 08:10:12;;;;;;;1999.90;999.90;;;;;;;;;;4974310;28;20624;-69
2023/09/30 08:12:38;;;;;;;1999.90;999.90;;;;;;;;;;4974284;28;20162;-67
2023/09/30 08:15:05;;;;;;;1999.90;999.90;;;;;;;;;;4974241;28;20073;-67
2023/09/30 08:17:33;;;;;;;1999.90;999.90;;;;;;;;;;4974340;28;20027;-68
2023/09/30 08:20:00;;;;;;;1999.90;999.90;;;;;;;;;;4974181;28;20031;-66
2023/09/30 08:22:27;;;;;;;1999.90;999.90;;;;;;;;;;4974218;28;20027;-65
2023/09/30 08:24:54;;;;;;;1999.90;999.90;;;;;;;;;;4973795;28;20444;-65
2023/09/30 08:27:20;;;;;;;1999.90;999.90;;;;;;;;;;4956722;28;20050;-68
2023/09/30 08:29:46;;;;;;;1999.90;999.90;;;;;;;;;;4974025;28;20054;-68
2023/09/30 08:32:12;;;;;;;1999.90;999.90;;;;;;;;;;4973868;28;20118;-67
2023/09/30 08:34:39;;;;;;;1999.90;999.90;;;;;;;;;;4975108;28;20031;-68
2023/09/30 08:37:05;;;;;;;1999.90;999.90;;;;;;;;;;4976307;28;20050;-69
2023/09/30 08:39:31;;;;;;;1999.90;999.90;;;;;;;;;;4973745;28;20038;-68
2023/09/30 08:41:58;;;;;;;1999.90;999.90;;;;;;;;;;4974069;28;20023;-69
2023/09/30 08:44:24;;;;;;;1999.90;999.90;;;;;;;;;;4973620;28;20078;-69
2023/09/30 08:46:52;;;;;;;1999.90;999.90;;;;;;;;;;4974780;28;20019;-71
2023/09/30 08:49:18;;;;;;;1999.90;999.90;;;;;;;;;;4973758;28;20026;-68
2023/09/30 08:51:45;;;;;;;1999.90;999.90;;;;;;;;;;4973456;28;20041;-66
2023/09/30 08:54:11;;;;;;;1999.90;999.90;;;;;;;;;;4973778;28;20037;-67
2023/09/30 08:56:37;;;;;;;1999.90;999.90;;;;;;;;;;4972657;28;20047;-68
2023/09/30 08:59:04;;;;;;;1999.90;999.90;;;;;;;;;;4973613;28;20027;-66
2023/09/30 09:01:31;;;;;;;1999.90;999.90;;;;;;;;;;4973386;28;20094;-68
2023/09/30 09:03:57;;;;;;;1999.90;999.90;;;;;;;;;;4973009;28;20023;-64
2023/09/30 09:06:24;;;;;;;1999.90;999.90;;;;;;;;;;4973719;28;20467;-66
2023/09/30 09:08:51;;;;;;;1999.90;999.90;;;;;;;;;;4973768;28;20070;-64
2023/09/30 09:11:17;;;;;;;1999.90;999.90;;;;;;;;;;4973393;28;20026;-69
2023/09/30 09:13:51;;;;;;;1999.90;999.90;;;;;;;;;;4973425;28;20379;-69
2023/09/30 09:16:18;;;;;;;1999.90;999.90;;;;;;;;;;4973205;28;20030;-67
2023/09/30 09:18:46;;;;;;;1999.90;999.90;;;;;;;;;;4974008;28;20027;-68
2023/09/30 09:21:27;;;;;;;1999.90;999.90;;;;;;;;;;4954719;28;20129;-71
2023/09/30 09:23:53;;;;;;;1999.90;999.90;;;;;;;;;;4973378;28;20085;-67
2023/09/30 09:26:27;;;;;;;1999.90;999.90;;;;;;;;;;4980334;28;20457;-69
2023/09/30 09:29:06;;;;;;;1999.90;999.90;;;;;;;;;;4972881;28;20405;-69
2023/09/30 09:31:36;;;;;;;1999.90;999.90;;;;;;;;;;4972110;28;20030;-67
2023/09/30 09:34:03;;;;;;;1999.90;999.90;;;;;;;;;;4972587;28;20035;-67
2023/09/30 09:36:41;;;;;;;1999.90;999.90;;;;;;;;;;4972529;28;20493;-68
2023/09/30 09:39:07;;;;;;;1999.90;999.90;;;;;;;;;;4972785;28;20031;-68
2023/09/30 09:41:33;;;;;;;1999.90;999.90;;;;;;;;;;4972357;28;20019;-69
2023/09/30 09:44:00;;;;;;;1999.90;999.90;;;;;;;;;;4972493;28;20038;-69
2023/09/30 09:46:27;;;;;;;1999.90;999.90;;;;;;;;;;4972529;28;20054;-66
2023/09/30 09:48:54;;;;;;;1999.90;999.90;;;;;;;;;;4972290;28;20031;-66
2023/09/30 09:51:21;;;;;;;1999.90;999.90;;;;;;;;;;4972002;28;20030;-66
2023/09/30 09:53:48;;;;;;;1999.90;999.90;;;;;;;;;;4972389;28;20094;-69
2023/09/30 09:56:15;;;;;;;1999.90;999.90;;;;;;;;;;4972279;28;20125;-68
2023/09/30 09:58:42;;;;;;;1999.90;999.90;;;;;;;;;;4972136;28;20445;-68
2023/09/30 10:01:09;;;;;;;1999.90;999.90;;;;;;;;;;4972620;28;20027;-68
2023/09/30 10:03:36;;;;;;;1999.90;999.90;;;;;;;;;;4972193;28;20118;-68
2023/09/30 10:06:02;;;;;;;1999.90;999.90;;;;;;;;;;4971821;28;20034;-69
2023/09/30 10:08:39;;;;;;;1999.90;999.90;;;;;;;;;;4971746;28;20462;-67
2023/09/30 10:11:06;;;;;;;1999.90;999.90;;;;;;;;;;4972328;28;20126;-67
2023/09/30 10:13:52;;;;;;;1999.90;999.90;;;;;;;;;;4972236;28;20092;-69
2023/09/30 10:16:54;;;;;;;1999.90;999.90;;;;;;;;;;4971817;28;20019;-68
2023/09/30 10:19:25;;;;;;;1999.90;999.90;;;;;;;;;;4874369;29;20093;-68
2023/09/30 10:22:09;;;;;;;1999.90;999.90;;;;;;;;;;4874814;29;20070;-69
2023/09/30 10:24:36;;;;;;;1999.90;999.90;;;;;;;;;;4874938;29;20048;-69
2023/09/30 10:27:20;;;;;;;1999.90;999.90;;;;;;;;;;4874682;29;20048;-68
2023/09/30 10:29:47;;;;;;;1999.90;999.90;;;;;;;;;;4874637;29;20041;-68
2023/09/30 10:32:14;;;;;;;1999.90;999.90;;;;;;;;;;4873485;29;20041;-67
2023/09/30 10:34:40;;;;;;;1999.90;999.90;;;;;;;;;;4873960;29;20041;-68
2023/09/30 10:37:22;;;;;;;1999.90;999.90;;;;;;;;;;4874074;29;20112;-68
2023/09/30 10:39:50;;;;;;;;;;;;;;;;;;4875329;29;20060;-69
2023/09/30 10:42:36;;;;;;;1999.90;999.90;;;;;;;;;;4874617;29;19998;-68
2023/09/30 10:45:04;;;;;;;1999.90;999.90;;;;;;;;;;4873687;29;20037;-68
2023/09/30 10:47:31;;;;;;;1999.90;999.90;;;;;;;;;;4874451;29;20060;-69
2023/09/30 10:49:57;;;;;;;1999.90;999.90;;;;;;;;;;4874231;29;20544;-69
2023/09/30 10:52:26;;;;;;;1999.90;999.90;;;;;;;;;;4885852;28;20119;-68
2023/09/30 10:54:52;;;;;;;1999.90;999.90;;;;;;;;;;4971237;28;20103;-69
2023/09/30 10:57:31;;;;;;;1999.90;999.90;;;;;;;;;;4971241;28;20155;-68
2023/09/30 11:00:11;;;;;;;1999.90;999.90;;;;;;;;;;4971240;28;20030;-67
2023/09/30 11:02:48;;;;;;;1999.90;999.90;;;;;;;;;;4970964;28;20023;-68
2023/09/30 11:05:14;;;;;;;1999.90;999.90;;;;;;;;;;4971475;28;20034;-67
2023/09/30 11:07:40;;;;;;;1999.90;999.90;;;;;;;;;;4971209;28;20140;-67
2023/09/30 11:10:06;;;;;;;1999.90;999.90;;;;;;;;;;4961899;28;20741;-66
2023/09/30 11:12:32;;;;;;;1999.90;999.90;;;;;;;;;;4952176;29;20649;-68
2023/09/30 11:15:02;;;;;;;1999.90;999.90;;;;;;;;;;4952101;29;20039;-66
2023/09/30 11:17:28;;;;;;;1999.90;999.90;;;;;;;;;;4951833;29;20031;-68
2023/09/30 11:19:55;;;;;;;1999.90;999.90;;;;;;;;;;4951907;29;20418;-69
2023/09/30 11:22:21;;;;;;;1999.90;999.90;;;;;;;;;;4952259;29;20106;-69
2023/09/30 11:24:47;;;;;;;1999.90;999.90;;;;;;;;;;4951910;29;20059;-68
2023/09/30 11:27:13;;;;;;;1999.90;999.90;;;;;;;;;;4951526;29;20090;-69
2023/09/30 11:29:49;;;;;;;1999.90;999.90;;;;;;;;;;4951535;29;20027;-67
2023/09/30 11:32:26;;;;;;;1999.90;999.90;;;;;;;;;;4952175;29;20027;-69
2023/09/30 11:34:53;;;;;;;1999.90;999.90;;;;;;;;;;4951685;29;20070;-68
2023/09/30 11:37:19;;;;;;;1999.90;999.90;;;;;;;;;;4954066;28;20498;-67
2023/09/30 11:39:45;;;;;;;1999.90;999.90;;;;;;;;;;4970878;28;20475;-68
2023/09/30 11:42:19;;;;;;;1999.90;999.90;;;;;;;;;;4972918;28;20019;-69
2023/09/30 11:44:47;;;;;;;1999.90;999.90;;;;;;;;;;4975191;28;20019;-67
2023/09/30 11:47:13;;;;;;;1999.90;999.90;;;;;;;;;;4974746;28;20113;-69
2023/09/30 11:49:40;;;;;;;1999.90;999.90;;;;;;;;;;4974712;28;20031;-69
2023/09/30 11:52:10;;;;;;;1999.90;999.90;;;;;;;;;;4974731;28;20668;-68
2023/09/30 11:54:39;;;;;;;1999.90;999.90;;;;;;;;;;4975244;28;20089;-68
2023/09/30 11:57:05;;;;;;;1999.90;999.90;;;;;;;;;;4974711;28;20054;-68
2023/09/30 11:59:31;;;;;;;1999.90;999.90;;;;;;;;;;4975161;28;20027;-68
2023/09/30 12:01:58;;;;;;;1999.90;999.90;;;;;;;;;;4975210;28;20485;-69
2023/09/30 12:04:24;;;;;;;1999.90;999.90;;;;;;;;;;4974821;28;20390;-66
2023/09/30 12:06:51;;;;;;;1999.90;999.90;;;;;;;;;;4974957;28;20031;-68
2023/09/30 12:09:22;;;;;;;1999.90;999.90;;;;;;;;;;4974942;28;20027;-68
2023/09/30 12:11:48;;;;;;;1999.90;999.90;;;;;;;;;;4975030;28;20089;-68
2023/09/30 12:14:15;;;;;;;1999.90;999.90;;;;;;;;;;4974707;28;20491;-68
2023/09/30 12:16:44;;;;;;;1999.90;999.90;;;;;;;;;;4974635;28;20082;-68
2023/09/30 12:19:10;;;;;;;1999.90;999.90;;;;;;;;;;4974838;28;20045;-69
2023/09/30 12:21:36;;;;;;;1999.90;999.90;;;;;;;;;;4974899;28;20054;-67
2023/09/30 12:24:03;;;;;;;1999.90;999.90;;;;;;;;;;4974630;28;20022;-69
2023/09/30 12:26:30;;;;;;;1999.90;999.90;;;;;;;;;;4974219;28;20057;-66
2023/09/30 12:28:57;;;;;;;1999.90;999.90;;;;;;;;;;4957278;28;20390;-64
2023/09/30 12:31:23;;;;;;;1999.90;999.90;;;;;;;;;;4974594;28;20038;-69
2023/09/30 12:33:51;;;;;;;1999.90;999.90;;;;;;;;;;4974327;28;20039;-69
2023/09/30 12:36:17;;;;;;;1999.90;999.90;;;;;;;;;;4974430;28;20027;-69
2023/09/30 12:38:44;;;;;;;1999.90;999.90;;;;;;;;;;4974325;28;20130;-69
2023/09/30 12:41:14;;;;;;;1999.90;999.90;;;;;;;;;;4974678;28;20034;-69
2023/09/30 12:43:41;;;;;;;1999.90;999.90;;;;;;;;;;4974044;28;20031;-69
2023/09/30 12:46:08;;;;;;;1999.90;999.90;;;;;;;;;;4973923;28;20766;-67
2023/09/30 12:48:34;;;;;;;1999.90;999.90;;;;;;;;;;4973911;28;20045;-68
2023/09/30 12:51:00;;;;;;;1999.90;999.90;;;;;;;;;;4974088;28;20031;-68
2023/09/30 12:53:26;;;;;;;1999.90;999.90;;;;;;;;;;4955892;28;20100;-68
2023/09/30 12:55:52;;;;;;;1999.90;999.90;;;;;;;;;;4973577;28;20050;-69
2023/09/30 12:58:18;;;;;;;1999.90;999.90;;;;;;;;;;4974123;28;20053;-69
2023/09/30 13:00:44;;;;;;;1999.90;999.90;;;;;;;;;;4973924;28;20505;-69
2023/09/30 13:03:12;;;;;;;1999.90;999.90;;;;;;;;;;4973742;28;20034;-69
2023/09/30 13:05:38;;;;;;;1999.90;999.90;;;;;;;;;;4955612;28;20438;-69
2023/09/30 13:08:04;;;;;;;1999.90;999.90;;;;;;;;;;4973546;28;20097;-69
2023/09/30 13:10:31;;;;;;;1999.90;999.90;;;;;;;;;;4973688;28;20046;-69
2023/09/30 13:12:57;;;;;;;1999.90;999.90;;;;;;;;;;4973545;28;20094;-69
2023/09/30 13:15:26;;;;;;;1999.90;999.90;;;;;;;;;;4973355;28;20027;-70
2023/09/30 13:17:52;;;;;;;1999.90;999.90;;;;;;;;;;4973644;28;20026;-69
2023/09/30 13:20:18;;;;;;;1999.90;999.90;;;;;;;;;;4973060;28;20023;-69
2023/09/30 13:22:45;;;;;;;1999.90;999.90;;;;;;;;;;4973229;28;20027;-68
2023/09/30 13:25:15;;;;;;;1999.90;999.90;;;;;;;;;;4973388;28;20065;-69
2023/09/30 13:27:43;;;;;;;1999.90;999.90;;;;;;;;;;4955320;28;20051;-69
2023/09/30 13:30:10;;;;;;;1999.90;999.90;;;;;;;;;;4973111;28;20058;-68
2023/09/30 13:32:36;;;;;;;1999.90;999.90;;;;;;;;;;4973048;28;20034;-69
2023/09/30 13:35:05;;;;;;;1999.90;999.90;;;;;;;;;;4972947;28;20061;-67
2023/09/30 13:37:33;;;;;;;1999.90;999.90;;;;;;;;;;4973179;28;20022;-67
2023/09/30 13:40:00;;;;;;;1999.90;999.90;;;;;;;;;;4972855;28;20089;-69
2023/09/30 13:42:26;;;;;;;1999.90;999.90;;;;;;;;;;4973196;28;20023;-69
2023/09/30 13:44:52;;;;;;;1999.90;999.90;;;;;;;;;;4972462;28;20031;-69